createdAt,value
2023-02-11T00:00:07.158Z,12.15
2023-02-11T00:02:47.464Z,12.10
2023-02-11T00:08:27.512Z,8.95
2023-02-11T00:11:08.782Z,8.27
2023-02-11T00:13:51.949Z,9.52
2023-02-11T00:16:51.290Z,9.25
2023-02-11T00:19:24.618Z,11.18
2023-02-11T00:22:03.366Z,8.30
2023-02-11T00:24:45.024Z,9.75
2023-02-11T00:27:37.868Z,10.48
2023-02-11T00:30:16.448Z,9.82
2023-02-11T00:32:57.494Z,8.68
2023-02-11T00:35:44.798Z,8.52
2023-02-11T00:38:43.439Z,8.13
2023-02-11T00:41:32.905Z,8.15
2023-02-11T00:44:07.065Z,8.52
2023-02-11T00:53:10.739Z,9.43
2023-02-11T00:55:59.925Z,7.90
2023-02-11T00:58:34.361Z,8.80
2023-02-11T01:01:11.078Z,9.60
2023-02-11T01:04:01.461Z,6.63
2023-02-11T01:06:51.562Z,8.30
2023-02-11T01:09:38.815Z,9.43
2023-02-11T01:12:36.394Z,9.13
2023-02-11T01:15:07.702Z,11.85
2023-02-11T01:19:39.792Z,8.95
2023-02-11T01:21:13.642Z,9.63
2023-02-11T01:23:42.596Z,12.00
2023-02-11T01:26:17.585Z,11.57
2023-02-11T01:28:48.534Z,9.23
2023-02-11T01:31:30.240Z,7.75
2023-02-11T01:34:27.249Z,11.07
2023-02-11T01:37:22.924Z,9.88
2023-02-11T01:39:50.197Z,10.63
2023-02-11T01:42:22.866Z,10.15
2023-02-11T01:44:52.174Z,10.32
2023-02-11T01:47:20.336Z,11.07
2023-02-11T01:49:52.831Z,11.38
2023-02-11T01:52:32.706Z,10.43
2023-02-11T01:55:19.841Z,12.85
2023-02-11T02:00:35.927Z,10.80
2023-02-11T02:03:12.096Z,10.05
2023-02-11T02:06:00.005Z,10.65
2023-02-11T02:08:35.444Z,10.67
2023-02-11T02:11:02.784Z,10.93
2023-02-11T02:13:33.739Z,11.75
2023-02-11T02:16:08.575Z,14.60
2023-02-11T02:18:49.948Z,10.52
2023-02-11T02:21:55.140Z,12.20
2023-02-11T02:24:53.872Z,10.70
2023-02-11T02:27:26.507Z,10.35
2023-02-11T02:30:34.675Z,12.25
2023-02-11T02:33:22.597Z,10.80
2023-02-11T02:36:05.527Z,11.10
2023-02-11T02:38:32.640Z,12.40
2023-02-11T02:41:04.748Z,11.48
2023-02-11T02:43:32.070Z,12.57
2023-02-11T02:46:23.567Z,10.55
2023-02-11T02:48:50.823Z,10.30
2023-02-11T02:51:42.772Z,12.57
2023-02-11T02:54:29.078Z,13.20
2023-02-11T02:57:08.328Z,11.60
2023-02-11T02:59:49.287Z,12.38
2023-02-11T03:02:27.877Z,12.30
2023-02-11T03:05:01.551Z,11.25
2023-02-11T03:07:46.680Z,12.30
2023-02-11T03:10:34.459Z,10.93
2023-02-11T03:13:03.909Z,12.05
2023-02-11T03:15:33.109Z,12.18
2023-02-11T03:18:00.765Z,11.60
2023-02-11T03:20:27.996Z,9.27
2023-02-11T03:23:02.347Z,10.90
2023-02-11T03:25:32.687Z,12.10
2023-02-11T03:28:36.776Z,13.93
2023-02-11T03:31:26.101Z,12.43
2023-02-11T03:34:28.216Z,11.55
2023-02-11T03:36:57.374Z,15.63
2023-02-11T03:40:01.088Z,12.25
2023-02-11T03:42:33.963Z,12.43
2023-02-11T03:45:09.329Z,14.02
2023-02-11T03:47:37.805Z,12.68
2023-02-11T03:50:07.153Z,14.55
2023-02-11T03:52:35.973Z,12.48
2023-02-11T03:55:05.473Z,14.13
2023-02-11T03:57:34.474Z,13.77
2023-02-11T04:00:01.842Z,14.88
2023-02-11T04:02:38.798Z,13.02
2023-02-11T04:05:06.994Z,12.45
2023-02-11T04:07:34.243Z,13.52
2023-02-11T04:10:01.464Z,13.48
2023-02-11T04:12:28.702Z,12.15
2023-02-11T04:14:55.838Z,13.00
2023-02-11T04:17:23.192Z,12.63
2023-02-11T04:19:50.281Z,11.55
2023-02-11T04:22:17.454Z,15.20
2023-02-11T04:24:44.806Z,12.25
2023-02-11T04:27:15.235Z,12.18
2023-02-11T04:32:10.948Z,10.98
2023-02-11T04:34:38.510Z,9.43
2023-02-11T04:37:05.623Z,14.52
2023-02-11T04:39:32.963Z,12.20
2023-02-11T04:42:00.120Z,12.55
2023-02-11T04:44:27.243Z,11.57
2023-02-11T04:46:55.078Z,11.18
2023-02-11T04:49:22.112Z,11.65
2023-02-11T04:51:49.715Z,10.82
2023-02-11T04:54:17.246Z,11.95
2023-02-11T04:56:44.469Z,9.73
2023-02-11T04:59:13.360Z,11.45
2023-02-11T05:01:40.862Z,9.63
2023-02-11T05:04:08.025Z,11.27
2023-02-11T05:06:35.380Z,9.75
2023-02-11T05:09:02.721Z,10.98
2023-02-11T05:11:29.764Z,12.20
2023-02-11T05:13:57.058Z,10.55
2023-02-11T05:16:24.535Z,11.30
2023-02-11T05:18:52.685Z,11.10
2023-02-11T05:21:19.968Z,10.60
2023-02-11T05:23:47.467Z,10.80
2023-02-11T05:26:17.058Z,11.73
2023-02-11T05:28:44.464Z,9.70
2023-02-11T05:31:12.402Z,10.57
2023-02-11T05:33:39.594Z,11.32
2023-02-11T05:36:09.844Z,10.05
2023-02-11T05:38:38.207Z,9.70
2023-02-11T05:41:05.673Z,9.40
2023-02-11T05:43:33.202Z,9.82
2023-02-11T05:46:03.846Z,11.05
2023-02-11T05:48:31.374Z,9.73
2023-02-11T05:50:58.502Z,9.73
2023-02-11T05:53:26.023Z,9.95
2023-02-11T05:55:53.233Z,9.27
2023-02-11T05:58:20.641Z,10.57
2023-02-11T06:00:47.913Z,10.52
2023-02-11T06:03:15.074Z,12.10
2023-02-11T06:05:44.214Z,9.75
2023-02-11T06:08:12.539Z,9.32
2023-02-11T06:10:42.528Z,9.48
2023-02-11T06:13:09.825Z,9.10
2023-02-11T06:15:37.966Z,8.65
2023-02-11T06:18:05.592Z,8.65
2023-02-11T06:20:32.837Z,11.55
2023-02-11T06:23:00.427Z,10.05
2023-02-11T06:25:27.520Z,8.27
2023-02-11T06:27:54.675Z,10.05
2023-02-11T06:30:21.983Z,8.85
2023-02-11T06:32:49.432Z,10.02
2023-02-11T06:35:16.605Z,10.35
2023-02-11T06:37:44.060Z,9.48
2023-02-11T06:40:14.421Z,9.02
2023-02-11T06:42:42.056Z,10.13
2023-02-11T06:45:11.224Z,12.05
2023-02-11T06:47:38.515Z,7.90
2023-02-11T06:50:06.484Z,7.68
2023-02-11T06:52:34.075Z,9.95
2023-02-11T06:55:01.169Z,10.10
2023-02-11T06:57:28.323Z,8.65
2023-02-11T06:59:56.083Z,8.63
2023-02-11T07:02:23.295Z,9.23
2023-02-11T07:04:50.478Z,9.77
2023-02-11T07:07:17.829Z,7.13
2023-02-11T07:09:44.939Z,7.55
2023-02-11T07:12:12.368Z,7.00
2023-02-11T07:14:40.044Z,10.60
2023-02-11T07:17:07.880Z,9.18
2023-02-11T07:19:35.025Z,8.45
2023-02-11T07:22:02.714Z,7.90
2023-02-11T07:24:29.855Z,7.03
2023-02-11T07:26:56.979Z,8.90
2023-02-11T07:29:24.330Z,9.27
2023-02-11T07:31:51.583Z,7.68
2023-02-11T07:34:18.774Z,9.38
2023-02-11T07:36:46.432Z,9.25
2023-02-11T07:39:13.771Z,9.73
2023-02-11T07:41:41.007Z,7.93
2023-02-11T07:44:08.451Z,7.95
2023-02-11T07:46:36.363Z,8.70
2023-02-11T07:49:03.827Z,8.32
2023-02-11T07:51:31.562Z,8.27
2023-02-11T07:53:59.545Z,7.35
2023-02-11T07:56:26.750Z,8.13
2023-02-11T07:58:54.240Z,7.00
2023-02-11T08:01:26.117Z,6.10
2023-02-11T08:03:53.331Z,8.60
2023-02-11T08:06:21.460Z,6.88
2023-02-11T08:08:48.591Z,10.18
2023-02-11T08:11:24.281Z,8.30
2023-02-11T08:13:51.906Z,6.15
2023-02-11T08:16:27.324Z,6.40
2023-02-11T08:18:57.723Z,8.85
2023-02-11T08:21:24.999Z,7.47
2023-02-11T08:23:52.948Z,6.63
2023-02-11T08:26:24.986Z,6.55
2023-02-11T08:28:53.133Z,5.57
2023-02-11T08:31:25.480Z,6.90
2023-02-11T08:33:53.456Z,5.90
2023-02-11T08:36:30.828Z,6.18
2023-02-11T08:39:18.748Z,5.65
2023-02-11T08:41:51.724Z,5.97
2023-02-11T08:44:21.622Z,5.07
2023-02-11T08:46:51.680Z,6.47
2023-02-11T08:49:31.816Z,7.35
2023-02-11T08:52:04.326Z,6.10
2023-02-11T08:54:31.664Z,6.40
2023-02-11T08:56:59.013Z,5.95
2023-02-11T08:59:26.202Z,5.32
2023-02-11T09:01:53.595Z,5.57
2023-02-11T09:04:20.971Z,4.00
2023-02-11T09:06:48.226Z,4.82
2023-02-11T09:09:16.000Z,5.00
2023-02-11T09:11:43.739Z,6.35
2023-02-11T09:14:16.996Z,4.75
2023-02-11T09:16:44.296Z,6.10
2023-02-11T09:19:16.872Z,4.15
2023-02-11T09:21:44.231Z,5.57
2023-02-11T09:24:12.257Z,5.05
2023-02-11T09:26:41.293Z,4.65
2023-02-11T09:29:08.400Z,5.45
2023-02-11T09:31:35.889Z,8.00
2023-02-11T09:34:04.769Z,5.40
2023-02-11T09:36:37.935Z,5.88
2023-02-11T09:39:06.300Z,5.10
2023-02-11T09:41:51.635Z,4.32
2023-02-11T09:44:26.344Z,5.60
2023-02-11T09:47:01.104Z,6.78
2023-02-11T09:50:10.353Z,5.18
2023-02-11T09:52:43.284Z,6.00
2023-02-11T09:55:22.090Z,4.70
2023-02-11T09:57:49.544Z,5.20
2023-02-11T10:00:38.205Z,4.57
2023-02-11T10:03:05.968Z,4.47
2023-02-11T10:05:43.309Z,5.35
2023-02-11T10:08:17.121Z,4.47
2023-02-11T10:10:54.627Z,6.55
2023-02-11T10:13:30.723Z,4.25
2023-02-11T10:16:19.644Z,4.93
2023-02-11T10:19:15.811Z,4.95
2023-02-11T10:22:05.383Z,4.82
2023-02-11T10:24:33.694Z,4.40
2023-02-11T10:27:01.634Z,5.70
2023-02-11T10:29:40.931Z,5.05
2023-02-11T10:32:21.935Z,5.65
2023-02-11T10:34:54.460Z,4.85
2023-02-11T10:37:21.656Z,4.32
2023-02-11T10:39:48.946Z,4.13
2023-02-11T10:42:16.355Z,4.10
2023-02-11T10:44:50.802Z,4.18
2023-02-11T10:47:21.527Z,4.20
2023-02-11T10:49:49.131Z,5.20
2023-02-11T10:52:25.772Z,5.13
2023-02-11T10:55:14.866Z,4.88
2023-02-11T10:57:55.023Z,4.55
2023-02-11T11:00:34.267Z,4.40
2023-02-11T11:03:01.669Z,5.55
2023-02-11T11:05:36.548Z,4.22
2023-02-11T11:08:07.298Z,5.70
2023-02-11T11:11:04.873Z,3.67
2023-02-11T11:13:36.608Z,5.82
2023-02-11T11:16:36.064Z,6.20
2023-02-11T11:19:09.683Z,5.05
2023-02-11T11:21:55.982Z,3.83
2023-02-11T11:24:30.323Z,6.45
2023-02-11T11:27:03.228Z,5.13
2023-02-11T11:29:35.411Z,4.57
2023-02-11T11:32:05.555Z,3.83
2023-02-11T11:34:38.802Z,4.82
2023-02-11T11:37:19.703Z,5.05
2023-02-11T11:40:09.025Z,4.60
2023-02-11T11:42:37.555Z,5.43
2023-02-11T11:45:20.398Z,4.63
2023-02-11T11:48:13.603Z,4.60
2023-02-11T11:50:43.991Z,5.90
2023-02-11T11:53:46.424Z,3.88
2023-02-11T11:56:25.024Z,5.15
2023-02-11T11:58:53.215Z,5.28
2023-02-11T12:01:42.175Z,6.38
2023-02-11T12:04:24.387Z,5.10
2023-02-11T12:06:57.737Z,6.22
2023-02-11T12:09:31.047Z,4.65
2023-02-11T12:12:32.432Z,3.40
2023-02-11T12:15:22.473Z,4.80
2023-02-11T12:17:58.556Z,8.02
2023-02-11T12:20:28.739Z,4.97
2023-02-11T12:23:32.996Z,6.32
2023-02-11T12:26:19.968Z,7.00
2023-02-11T12:29:08.213Z,8.95
2023-02-11T12:31:59.950Z,6.25
2023-02-11T12:34:36.013Z,7.25
2023-02-11T12:37:07.840Z,4.43
2023-02-11T12:39:46.485Z,6.90
2023-02-11T12:42:49.518Z,5.65
2023-02-11T12:45:24.686Z,6.40
2023-02-11T12:47:57.869Z,5.97
2023-02-11T12:50:53.083Z,6.68
2023-02-11T12:53:54.015Z,6.90
2023-02-11T12:56:29.476Z,6.38
2023-02-11T12:58:57.766Z,6.20
2023-02-11T13:01:42.005Z,7.47
2023-02-11T13:04:31.039Z,5.05
2023-02-11T13:07:02.406Z,7.38
2023-02-11T13:09:39.103Z,5.70
2023-02-11T13:12:25.206Z,7.82
2023-02-11T13:14:54.100Z,5.55
2023-02-11T13:17:29.083Z,6.18
2023-02-11T13:19:59.994Z,8.60
2023-02-11T13:22:32.556Z,7.40
2023-02-11T13:25:34.444Z,6.13
2023-02-11T13:28:30.270Z,6.90
2023-02-11T13:31:03.060Z,8.43
2023-02-11T13:33:43.073Z,8.65
2023-02-11T13:36:12.630Z,7.78
2023-02-11T13:38:39.910Z,8.63
2023-02-11T13:41:23.721Z,4.60
2023-02-11T13:44:26.220Z,9.20
2023-02-11T13:47:02.398Z,9.07
2023-02-11T13:49:36.065Z,5.57
2023-02-11T13:52:05.748Z,14.00
2023-02-11T13:54:35.918Z,5.40
2023-02-11T13:57:33.328Z,11.65
2023-02-11T14:00:02.434Z,7.72
2023-02-11T14:02:51.066Z,6.35
2023-02-11T14:05:39.599Z,7.95
2023-02-11T14:08:31.227Z,8.00
2023-02-11T14:11:14.802Z,6.97
2023-02-11T14:13:48.203Z,5.20
2023-02-11T14:16:22.646Z,6.32
2023-02-11T14:18:55.497Z,4.57
2023-02-11T14:21:23.405Z,6.95
2023-02-11T14:23:53.405Z,14.98
2023-02-11T14:26:20.686Z,6.47
2023-02-11T14:29:01.672Z,6.63
2023-02-11T14:31:39.174Z,8.00
2023-02-11T14:34:24.564Z,6.20
2023-02-11T14:36:58.936Z,6.05
2023-02-11T14:39:52.787Z,5.03
2023-02-11T14:42:21.146Z,5.80
2023-02-11T14:44:51.553Z,6.00
2023-02-11T14:49:51.104Z,7.90
2023-02-11T14:52:32.391Z,8.65
2023-02-11T14:55:15.090Z,5.60
2023-02-11T14:57:46.137Z,7.57
2023-02-11T15:00:25.088Z,5.88
2023-02-11T15:02:54.016Z,5.40
2023-02-11T15:05:26.569Z,4.85
2023-02-11T15:08:15.993Z,6.80
2023-02-11T15:10:43.668Z,7.20
2023-02-11T15:13:19.571Z,6.28
2023-02-11T15:15:46.885Z,6.45
2023-02-11T15:18:21.496Z,7.20
2023-02-11T15:20:49.821Z,6.35
2023-02-11T15:23:26.033Z,4.80
2023-02-11T15:25:56.089Z,6.80
2023-02-11T15:28:31.445Z,6.90
2023-02-11T15:31:04.692Z,9.90
2023-02-11T15:33:32.591Z,7.38
2023-02-11T15:36:00.541Z,5.72
2023-02-11T15:38:28.036Z,6.13
2023-02-11T15:41:02.704Z,10.35
2023-02-11T15:43:43.167Z,9.48
2023-02-11T15:46:12.158Z,8.40
2023-02-11T15:48:43.210Z,12.07
2023-02-11T15:51:35.244Z,6.53
2023-02-11T15:54:06.332Z,9.60
2023-02-11T15:56:42.348Z,4.70
2023-02-11T15:59:13.592Z,7.13
2023-02-11T16:01:41.985Z,5.57
2023-02-11T16:04:22.112Z,5.82
2023-02-11T16:06:50.064Z,10.25
2023-02-11T16:09:17.415Z,9.15
2023-02-11T16:11:47.693Z,7.00
2023-02-11T16:14:24.911Z,14.00
2023-02-11T16:16:53.070Z,7.40
2023-02-11T16:19:22.911Z,12.60
2023-02-11T16:21:51.436Z,8.77
2023-02-11T16:24:24.672Z,8.80
2023-02-11T16:26:53.404Z,11.75
2023-02-11T16:29:24.629Z,7.43
2023-02-11T16:31:52.621Z,5.28
2023-02-11T16:34:23.937Z,7.57
2023-02-11T16:36:51.706Z,6.40
2023-02-11T16:39:21.828Z,6.60
2023-02-11T16:41:52.500Z,6.13
2023-02-11T16:44:20.143Z,6.93
2023-02-11T16:46:47.481Z,8.52
2023-02-11T16:49:26.000Z,9.52
2023-02-11T16:51:57.106Z,5.65
2023-02-11T16:54:24.458Z,9.65
2023-02-11T16:56:51.762Z,8.13
2023-02-11T16:59:18.969Z,6.43
2023-02-11T17:01:46.368Z,7.70
2023-02-11T17:04:19.899Z,8.75
2023-02-11T17:06:48.256Z,10.23
2023-02-11T17:09:19.906Z,8.45
2023-02-11T17:11:47.136Z,8.05
2023-02-11T17:14:14.584Z,8.75
2023-02-11T17:16:42.807Z,8.50
2023-02-11T17:19:12.875Z,9.05
2023-02-11T17:21:43.988Z,8.43
2023-02-11T17:24:14.605Z,9.23
2023-02-11T17:26:42.419Z,7.45
2023-02-11T17:29:12.951Z,7.28
2023-02-11T17:31:40.832Z,7.80
2023-02-11T17:34:08.443Z,8.90
2023-02-11T17:36:35.564Z,6.65
2023-02-11T17:39:03.268Z,8.02
2023-02-11T17:41:30.325Z,8.30
2023-02-11T17:44:00.867Z,8.80
2023-02-11T17:49:02.091Z,7.97
2023-02-11T17:51:33.096Z,7.20
2023-02-11T17:54:02.410Z,7.43
2023-02-11T17:56:31.296Z,6.18
2023-02-11T17:58:58.654Z,7.15
2023-02-11T18:01:29.502Z,5.93
2023-02-11T18:03:56.746Z,6.30
2023-02-11T18:06:24.078Z,9.40
2023-02-11T18:08:51.163Z,8.52
2023-02-11T18:11:18.481Z,6.65
2023-02-11T18:13:46.073Z,8.02
2023-02-11T18:16:15.896Z,7.15
2023-02-11T18:18:46.435Z,9.23
2023-02-11T18:23:44.412Z,9.38
2023-02-11T18:26:12.922Z,8.65
2023-02-11T18:28:41.161Z,9.43
2023-02-11T18:31:09.650Z,7.57
2023-02-11T18:33:37.497Z,8.18
2023-02-11T18:36:08.870Z,8.25
2023-02-11T18:38:35.930Z,7.45
2023-02-11T18:41:03.588Z,9.25
2023-02-11T18:43:31.924Z,8.23
2023-02-11T18:45:59.035Z,7.63
2023-02-11T18:48:29.235Z,13.57
2023-02-11T18:50:56.502Z,6.35
2023-02-11T18:53:23.679Z,7.97
2023-02-11T18:55:51.360Z,6.18
2023-02-11T18:58:18.825Z,7.28
2023-02-11T19:00:46.497Z,11.60
2023-02-11T19:03:13.815Z,9.40
2023-02-11T19:05:45.164Z,10.00
2023-02-11T19:08:12.437Z,7.57
2023-02-11T19:10:43.979Z,8.32
2023-02-11T19:13:11.961Z,10.60
2023-02-11T19:15:45.000Z,8.20
2023-02-11T19:18:13.341Z,9.32
2023-02-11T19:20:42.100Z,7.43
2023-02-11T19:23:09.567Z,8.93
2023-02-11T19:25:36.718Z,7.18
2023-02-11T19:28:04.064Z,8.38
2023-02-11T19:30:31.524Z,9.75
2023-02-11T19:32:58.564Z,9.52
2023-02-11T19:35:25.850Z,9.32
2023-02-11T19:37:53.412Z,7.47
2023-02-11T19:40:21.458Z,8.20
2023-02-11T19:42:48.709Z,10.05
2023-02-11T19:45:16.113Z,13.15
2023-02-11T19:47:43.312Z,10.10
2023-02-11T19:50:10.877Z,9.18
2023-02-11T19:52:39.087Z,9.60
2023-02-11T19:55:08.490Z,9.13
2023-02-11T19:57:36.894Z,8.20
2023-02-11T20:00:05.114Z,14.38
2023-02-11T20:02:40.035Z,10.88
2023-02-11T20:05:08.260Z,10.98
2023-02-11T20:07:35.466Z,10.10
2023-02-11T20:10:02.718Z,10.48
2023-02-11T20:12:30.031Z,10.52
2023-02-11T20:14:57.143Z,11.32
2023-02-11T20:17:24.421Z,10.38
2023-02-11T20:19:51.745Z,11.70
2023-02-11T20:22:19.015Z,11.27
2023-02-11T20:24:46.232Z,14.02
2023-02-11T20:27:13.591Z,11.15
2023-02-11T20:29:42.936Z,10.20
2023-02-11T20:32:11.113Z,9.45
2023-02-11T20:34:38.613Z,12.00
2023-02-11T20:37:06.784Z,10.50
2023-02-11T20:39:35.485Z,10.50
2023-02-11T20:42:02.941Z,12.52
2023-02-11T20:44:29.972Z,10.70
2023-02-11T20:46:57.198Z,9.20
2023-02-11T20:49:25.424Z,10.43
2023-02-11T20:51:53.937Z,11.10
2023-02-11T20:54:21.439Z,15.02
2023-02-11T20:56:48.870Z,12.80
2023-02-11T20:59:16.942Z,12.05
2023-02-11T21:01:48.170Z,10.20
2023-02-11T21:04:17.453Z,11.20
2023-02-11T21:06:49.219Z,11.48
2023-02-11T21:09:21.879Z,10.55
2023-02-11T21:11:49.553Z,10.85
2023-02-11T21:14:18.453Z,13.32
2023-02-11T21:16:46.222Z,12.15
2023-02-11T21:19:13.272Z,16.45
2023-02-11T21:21:42.852Z,15.75
2023-02-11T21:24:12.783Z,16.87
2023-02-11T21:26:39.910Z,15.45
2023-02-11T21:29:07.815Z,18.33
2023-02-11T21:31:35.897Z,16.77
2023-02-11T21:34:03.216Z,17.10
2023-02-11T21:36:30.594Z,15.80
2023-02-11T21:38:58.085Z,18.88
2023-02-11T21:41:25.290Z,18.30
2023-02-11T21:43:52.622Z,16.45
2023-02-11T21:46:20.233Z,18.05
2023-02-11T21:48:47.641Z,15.23
2023-02-11T21:51:17.149Z,14.35
2023-02-11T21:53:44.624Z,15.25
2023-02-11T21:56:14.825Z,13.15
2023-02-11T21:58:45.727Z,12.23
2023-02-11T22:01:16.738Z,15.13
2023-02-11T22:03:43.986Z,15.55
2023-02-11T22:06:15.249Z,13.88
2023-02-11T22:08:42.449Z,13.18
2023-02-11T22:11:10.995Z,15.27
2023-02-11T22:13:38.235Z,12.40
2023-02-11T22:16:07.791Z,13.50
2023-02-11T22:18:35.094Z,11.67
2023-02-11T22:21:10.223Z,14.70
2023-02-11T22:23:38.332Z,11.40
2023-02-11T22:26:07.495Z,13.23
2023-02-11T22:28:35.880Z,13.03
2023-02-11T22:31:03.090Z,13.70
2023-02-11T22:33:30.377Z,16.35
2023-02-11T22:36:06.262Z,14.98
2023-02-11T22:38:34.046Z,17.13
2023-02-11T22:41:04.757Z,16.00
2023-02-11T22:43:32.172Z,22.00
2023-02-11T22:46:03.340Z,16.45
2023-02-11T22:48:30.491Z,16.05
2023-02-11T22:50:57.781Z,17.38
2023-02-11T22:53:25.697Z,16.30
2023-02-11T22:55:53.104Z,15.65
2023-02-11T22:58:20.473Z,14.43
2023-02-11T23:00:47.818Z,18.05
2023-02-11T23:03:15.320Z,16.35
2023-02-11T23:05:42.790Z,17.67
2023-02-11T23:08:12.308Z,15.68
2023-02-11T23:10:39.822Z,15.40
2023-02-11T23:13:07.146Z,15.00
2023-02-11T23:15:34.373Z,17.55
2023-02-11T23:18:01.486Z,16.15
2023-02-11T23:20:28.930Z,17.90
2023-02-11T23:22:56.059Z,17.33
2023-02-11T23:25:23.259Z,16.92
2023-02-11T23:27:50.811Z,18.65
2023-02-11T23:30:18.280Z,16.17
2023-02-11T23:32:46.035Z,14.88
2023-02-11T23:35:18.655Z,15.00
2023-02-11T23:37:45.849Z,17.75
2023-02-11T23:40:13.506Z,19.63
2023-02-11T23:42:40.956Z,19.05
2023-02-11T23:45:08.585Z,19.52
2023-02-11T23:47:35.702Z,17.38
2023-02-11T23:50:02.969Z,17.05
2023-02-11T23:52:30.210Z,18.83
2023-02-11T23:54:57.447Z,19.42
2023-02-11T23:57:24.705Z,20.50
2023-02-11T23:59:51.885Z,18.33
